Gordon Gunter — WTEO — position and weather

sailwx.info

Track history (hours):
 
Tides and Currents Weather Stations Pressure Air Temp Water Temp Dewpoint Dewpoint Depression Visibility Wind Speed Wind Dir Waves Ship Positions

Oceanographic research ship Gordon Gunter (USA)

Detailed information on ship capabilities available from University of Delaware's Ocean Information Center.

Last reported at 2016-May-03 03:00 UTC. Time now 2016-May-03 05:02 UTC.
Position N 42°00' W 069°24'.

Type: Other ship. MMSI: 303913000.

Wind from 310 at 19 knots

Waves 0.5 meters (2 feet), 2 second period

Barometer 1011.1 mb
Air temperature 6.9 ° C
Visibility: greater than 5.4 NM
Dewpoint 6.7 ° C
Water temperature 8.3 ° C

Date/timePositionNaut miles runAvg speedWind from/ knotsBaromVisibWave heightAir tempDewpointWater temp
2016-May-03 03:00N 42°00' W 069°24'420.6 310 / 191011.1 5.4 0.5 6.9 6.7 8.3
2016-May-03 02:47N 42°00' W 069°30'0 0.0 320 / 191012.5 7.7 7.5
2016-May-03 01:47N 42°00' W 069°30'4 2.5 300 / 201011.6 7.9 7.7
2016-May-03 00:00N 42°00' W 069°24'7 7.5 280 / 131010.0 2.2 0.5 8.6 8.4 8.7
2016-May-02 23:00N 41°54' W 069°30'740.8 210 / 131009.6 0.0 8.4 7.6 7.8
2016-May-02 22:49N 41°48' W 069°36'7 7.6 210 / 121010.7 8.3 7.6
2016-May-02 21:50N 41°42' W 069°42'7 7.5 200 / 91010.3 8.8 7.7
2016-May-02 20:50N 41°36' W 069°36'6 2.0 170 / 71011.0 8.3 7.7
2016-May-02 17:52N 41°30' W 069°36'7 7.6 160 / 101012.2 8.4 7.5
2016-May-02 16:53N 41°24' W 069°30'9 9.0 120 / 111013.0 8.1 7.0
2016-May-02 15:53N 41°24' W 069°18'5 4.6 110 / 131014.2 8.8 7.3
2016-May-02 14:54N 41°24' W 069°12'7 2.5 100 / 191013.6 8.8 7.3
2016-May-02 11:55N 41°30' W 069°06'4 4.6 100 / 201014.9 8.7 7.5
2016-May-02 10:56N 41°30' W 069°12'1111.0 120 / 211015.8 8.8 7.4
2016-May-02 09:57N 41°36' W 069°24'0 0.0 100 / 191015.6 8.8 7.5
2016-May-02 08:57N 41°36' W 069°24'7 7.6 090 / 151016.3 8.6 7.5
2016-May-02 07:58N 41°30' W 069°18'4 2.3 100 / 151016.7 8.6 7.2
2016-May-02 06:00N 41°30' W 069°12'4269.6 130 / 191015.7 2.2 0.5 7.9 7.9 8.3
2016-May-02 05:59N 41°30' W 069°18'4 4.5 110 / 201016.6 8.4 7.5
2016-May-02 04:59N 41°30' W 069°12'6 1.2 110 / 191018.5 8.2 7.3
2016-May-02 00:00N 41°36' W 069°12'15 4.5 1020.5 5.4 0.5 7.0 6.6 8.3
2016-May-01 20:42N 41°42' W 069°30'4 6.4 130 / 111023.2 8.1 7.7
2016-May-01 20:00N 41°42' W 069°36'414.9 140 / 91022.327.0 0.5 8.3 5.2 7.7
2016-May-01 19:42N 41°42' W 069°42'6 6.1 140 / 91023.8 8.3 7.7
2016-May-01 18:43N 41°36' W 069°42'4 6.3 120 / 111023.8 8.1 7.5
2016-May-01 18:00N 41°36' W 069°36'415.8 130 / 91022.2 5.4 0.5 8.0 4.9 8.4
2016-May-01 17:43N 41°36' W 069°42'0 0.0 110 / 91024.3 8.0 7.4
2016-May-01 15:45N 41°36' W 069°42'0 0.0 140 / 81025.0 8.7 7.3
2016-May-01 14:45N 41°36' W 069°42'5 2.0 120 / 61025.0 9.4 7.3
2016-May-01 12:31N 41°40' W 069°46'4 5.4
2016-May-01 11:47N 41°36' W 069°48'518.3 120 / 51025.2 7.5 7.2
2016-May-01 11:31N 41°41' W 069°49'5 6.4
2016-May-01 10:48N 41°36' W 069°48'11 6.8 110 / 71024.9 7.5 6.9
2016-May-01 09:15N 41°29' W 069°37'817.1
2016-May-01 08:49N 41°24' W 069°30'7 7.6 060 / 51024.3 6.8 6.9
2016-May-01 07:50N 41°30' W 069°24'5 3.9 040 / 61024.1 6.8 6.9
2016-May-01 06:31N 41°30' W 069°17'816.2
2016-May-01 06:00N 41°30' W 069°06'0 0.0 360 / 51023.110.8 6.9 5.0 8.2
2016-May-01 05:51N 41°30' W 069°06'7 7.6 360 / 61024.7 6.9 7.3
2016-May-01 04:52N 41°24' W 069°00'5 4.6 330 / 51025.0 7.1 7.4
2016-May-01 03:53N 41°24' W 068°54'5 4.6 340 / 51024.8 7.1 7.6
2016-May-01 02:54N 41°24' W 068°48'5 4.5 090 / 21024.7 7.5 7.6
2016-May-01 01:54N 41°24' W 068°42'1910.0 090 / 41024.7 7.2 7.4
2016-May-01 00:00N 41°30' W 068°18'6 6.0 040 / 91022.3 5.4 0.5 7.0 3.1 7.8
2016-Apr-30 23:00N 41°24' W 068°18'590.0 090 / 51023.527.0 0.5 7.8 4.9 7.8
2016-Apr-30 22:57N 41°24' W 068°24'8 7.5 100 / 41024.6 7.8 7.8
2016-Apr-30 21:57N 41°18' W 068°30'1111.0 070 / 71024.0 8.4 7.8
2016-Apr-30 20:58N 41°12' W 068°42'8 7.6 040 / 101023.5 7.5 7.8
2016-Apr-30 19:59N 41°18' W 068°48'8 3.8 040 / 121023.1 7.4 7.3
2016-Apr-30 18:00N 41°12' W 068°54'513.5 050 / 131020.710.8 0.5 7.9 5.7 8.5
2016-Apr-30 17:40N 41°12' W 069°00'5 4.6 060 / 171022.6 7.2 7.6
2016-Apr-30 16:41N 41°12' W 069°06'9 9.2 040 / 171022.3 7.0 7.2
2016-Apr-30 15:42N 41°12' W 069°18'18 4.6 030 / 201022.0 6.9 7.2
2016-Apr-30 11:45N 41°00' W 069°00'8 2.5 060 / 151022.0 6.8 6.8
2016-Apr-30 08:47N 41°06' W 068°54'11 5.5 060 / 151020.3 6.6 7.4
2016-Apr-30 06:49N 41°12' W 069°06'0 0.0 080 / 101021.5 6.6 6.9
2016-Apr-30 06:00N 41°12' W 069°06'527.1 080 / 91019.610.8 1.0 6.2 1.4 7.9
2016-Apr-30 05:50N 41°12' W 069°12'8 7.5 080 / 101021.0 6.7 7.1
2016-Apr-30 04:50N 41°18' W 069°18'5 4.6 120 / 111020.7 6.6 6.9
2016-Apr-30 03:51N 41°18' W 069°24'15 7.5 120 / 131020.8 6.6 6.9
2016-Apr-30 01:53N 41°24' W 069°42'14 7.2 120 / 151020.7 6.8 7.1
2016-Apr-30 00:00N 41°24' W 070°00'1412.5 100 / 131019.3 5.4 0.5 6.5 0.5 9.9
2016-Apr-29 22:55N 41°24' W 070°18'5 4.6 100 / 131020.7 7.2 9.7
2016-Apr-29 21:56N 41°24' W 070°24'1111.0 100 / 121020.4 7.2 9.9
2016-Apr-29 20:57N 41°30' W 070°36'0 0.0 110 / 131020.5 7.7 9.9
2016-Apr-29 18:58N 41°30' W 070°36'   100 / 91020.2 9.0 12.6
2016-Apr-27 11:46N 41°30' W 070°36'6 6.1 310 / 61013.1 5.8
2016-Apr-27 10:47N 41°24' W 070°36'5 4.6 270 / 51013.1 5.4 9.5
2016-Apr-27 09:48N 41°24' W 070°42'8 7.6 280 / 41012.8 4.6
2016-Apr-27 08:49N 41°18' W 070°48'8 3.8 320 / 91012.4 4.3 8.1
2016-Apr-27 06:50N 41°12' W 070°54'6 6.1 010 / 91011.4 5.0 8.1
2016-Apr-27 05:51N 41°18' W 070°54'6 3.1 350 / 81011.3 5.1 8.5
2016-Apr-27 03:53N 41°12' W 070°54'6 6.1 010 / 121011.8 5.5 8.4
2016-Apr-27 02:54N 41°18' W 070°54'8 3.8 020 / 141010.4 6.1
2016-Apr-27 00:55N 41°12' W 071°00'8 8.2 030 / 151010.2 6.2
2016-Apr-27 00:00N 41°06' W 070°54'9 8.6 030 / 191007.6 5.4 1.0 5.5 4.0 9.0
2016-Apr-26 22:57N 41°06' W 071°06'8 7.6 050 / 201008.1 6.3
2016-Apr-26 21:58N 41°00' W 071°12'5 4.5 050 / 181007.3 6.3 8.5
2016-Apr-26 20:58N 41°00' W 071°18'41 9.5 020 / 201006.8 6.5
2016-Apr-26 16:42N 40°30' W 071°54'29 9.8 280 / 111004.4 10.5
2016-Apr-26 13:44N 40°12' W 072°24'8 7.7 210 / 161006.1 13.1 9.1
2016-Apr-26 12:45N 40°06' W 072°30'1111.2 200 / 191006.9 12.7
2016-Apr-26 11:46N 40°00' W 072°42'2311.4 200 / 181007.8 12.4 9.2
2016-Apr-26 09:47N 39°42' W 073°00'8 7.7 200 / 171008.3 12.6 9.4
2016-Apr-26 08:48N 39°36' W 073°06'1111.2 170 / 191007.6 12.8
2016-Apr-26 07:49N 39°30' W 073°18'8 7.7 220 / 101010.5 14.7 10.6
2016-Apr-26 06:50N 39°24' W 073°24'8 9.1 290 / 261009.9 12.6
2016-Apr-26 06:00N 39°18' W 073°30'531.0 190 / 191008.727.0 12.311.610.3
2016-Apr-26 05:51N 39°18' W 073°36'19 9.4 190 / 181010.2 12.3 10.3
2016-Apr-26 03:52N 39°00' W 073°42'1313.1 190 / 131012.5 13.0 10.1
2016-Apr-26 02:53N 38°48' W 073°48'18 9.2 190 / 151013.1 12.2
2016-Apr-26 00:55N 38°30' W 073°48'1314.1 200 / 141013.8 12.4
2016-Apr-26 00:00N 38°18' W 073°42'19 9.1 200 / 131012.4 5.4 0.512.0 8.910.7
2016-Apr-25 21:57N 38°00' W 073°48'6 6.1 200 / 131014.9 14.1 11.7
2016-Apr-25 20:58N 37°54' W 073°48'1212.2 190 / 151015.2 15.9
2016-Apr-25 19:59N 37°42' W 073°48'1212.2 190 / 161015.8 17.0 14.3
2016-Apr-25 19:00N 37°30' W 073°48'8 7.7 200 / 151017.2 16.8
2016-Apr-25 18:00N 37°24' W 073°42'42 9.8 210 / 131016.727.0 0.517.212.918.6
2016-Apr-25 13:41N 36°42' W 073°48'3010.3 180 / 31020.0 17.1 19.0
2016-Apr-25 10:44N 36°12' W 073°54'1313.2 080 / 51019.3 18.1 24.6
2016-Apr-25 09:45N 36°00' W 074°00'8 7.7 110 / 81018.7 18.1 24.7
2016-Apr-25 08:45N 35°54' W 074°06'1313.2 120 / 61018.1 18.1 24.4
2016-Apr-25 07:46N 35°42' W 074°12'8 7.9 090 / 41018.2 18.1 24.4
2016-Apr-25 06:47N 35°36' W 074°18'1316.5 080 / 71018.5 17.9
2016-Apr-25 06:00N 35°24' W 074°12'1048.9 070 / 51017.327.0 1.017.611.324.2
2016-Apr-25 05:48N 35°24' W 074°24'6 6.1 070 / 81018.6 17.6 24.1
2016-Apr-25 04:49N 35°18' W 074°24'8 7.7 050 / 91019.0 17.6
2016-Apr-25 03:49N 35°12' W 074°30'1211.7 010 / 131019.1 17.3 23.5
2016-Apr-25 02:50N 35°06' W 074°42'16 8.1 010 / 141018.8 17.1
2016-Apr-25 00:52N 35°00' W 075°00'6 6.9 010 / 151017.8 16.9
2016-Apr-25 00:00N 34°54' W 075°00'1210.3 010 / 131016.6 5.4 1.516.9 8.225.7
2016-Apr-24 22:53N 34°48' W 075°12'8 7.9 010 / 141017.6 16.8
2016-Apr-24 21:54N 34°42' W 075°18'8 7.9 010 / 201017.4 16.5 25.0
2016-Apr-24 20:55N 34°36' W 075°24'16 8.1 020 / 171017.4 16.4
2016-Apr-24 18:57N 34°30' W 075°42'8 7.8 010 / 181018.4 16.8
2016-Apr-24 17:57N 34°24' W 075°48'8 7.9 010 / 211017.6 16.6 24.4
2016-Apr-24 16:58N 34°18' W 075°54'8 7.9 010 / 211017.3 17.5
2016-Apr-24 15:59N 34°12' W 076°00'42 8.0 360 / 201017.6 17.4 24.3
2016-Apr-24 10:43N 33°48' W 076°42'27 9.1 010 / 201014.9 18.312.724.0
2016-Apr-24 07:45N 33°30' W 077°06'1211.9 040 / 201013.5 19.513.3
2016-Apr-24 06:46N 33°24' W 077°18'8 8.0 040 / 191013.1 19.614.323.3
2016-Apr-24 05:47N 33°18' W 077°24'16 8.2 020 / 181012.7 19.815.1
2016-Apr-24 03:48N 33°12' W 077°42'1010.2 020 / 201012.1 20.314.4
2016-Apr-24 02:49N 33°12' W 077°54'1211.9 360 / 121012.5 21.216.322.0
2016-Apr-24 01:50N 33°06' W 078°06'1211.9 260 / 141012.0 21.217.5
2016-Apr-24 00:51N 33°00' W 078°18'8 9.2 260 / 131011.8 21.117.122.1
2016-Apr-24 00:00N 32°54' W 078°24'2612.2 240 / 91009.6 5.4 0.521.116.622.9
2016-Apr-23 21:53N 32°48' W 078°54'5 5.1 200 / 81010.6 21.216.6
2016-Apr-23 20:54N 32°48' W 079°00'2311.8 200 / 51010.5 21.916.919.9
2016-Apr-23 18:55N 32°36' W 079°24'1010.3 230 / 101011.2 21.917.1
2016-Apr-23 17:56N 32°36' W 079°36'19 6.5 230 / 101011.6 21.916.819.8
2016-Apr-23 14:58N 32°48' W 079°54'0 0.0 300 / 81012.0 20.615.5
2016-Apr-23 13:59N 32°48' W 079°54'0 0.0 330 / 121011.5 19.515.821.4
2016-Apr-23 13:00N 32°48' W 079°54'   310 / 111011.7 19.116.2
Track history (hours):
 
Tides and Currents Weather Stations Pressure Air Temp Water Temp Dewpoint Dewpoint Depression Visibility Wind Speed Wind Dir Waves Ship Positions

Oceanographic research ship Gordon Gunter (USA)

Detailed information on ship capabilities available from University of Delaware's Ocean Information Center.

Last reported at 2016-May-03 03:00 UTC. Time now 2016-May-03 05:02 UTC.
Position N 42°00' W 069°24'.

Type: Other ship. MMSI: 303913000.

Wind from 310 at 19 knots

Waves 0.5 meters (2 feet), 2 second period

Barometer 1011.1 mb
Air temperature 6.9 ° C
Visibility: greater than 5.4 NM
Dewpoint 6.7 ° C
Water temperature 8.3 ° C

Date/timePositionNaut miles runAvg speedWind from/ knotsBaromVisibWave heightAir tempDewpointWater temp
2016-May-03 03:00N 42°00' W 069°24'420.6 310 / 191011.1 5.4 0.5 6.9 6.7 8.3
2016-May-03 02:47N 42°00' W 069°30'0 0.0 320 / 191012.5 7.7 7.5
2016-May-03 01:47N 42°00' W 069°30'4 2.5 300 / 201011.6 7.9 7.7
2016-May-03 00:00N 42°00' W 069°24'7 7.5 280 / 131010.0 2.2 0.5 8.6 8.4 8.7
2016-May-02 23:00N 41°54' W 069°30'740.8 210 / 131009.6 0.0 8.4 7.6 7.8
2016-May-02 22:49N 41°48' W 069°36'7 7.6 210 / 121010.7 8.3 7.6
2016-May-02 21:50N 41°42' W 069°42'7 7.5 200 / 91010.3 8.8 7.7
2016-May-02 20:50N 41°36' W 069°36'6 2.0 170 / 71011.0 8.3 7.7
2016-May-02 17:52N 41°30' W 069°36'7 7.6 160 / 101012.2 8.4 7.5
2016-May-02 16:53N 41°24' W 069°30'9 9.0 120 / 111013.0 8.1 7.0
2016-May-02 15:53N 41°24' W 069°18'5 4.6 110 / 131014.2 8.8 7.3
2016-May-02 14:54N 41°24' W 069°12'7 2.5 100 / 191013.6 8.8 7.3
2016-May-02 11:55N 41°30' W 069°06'4 4.6 100 / 201014.9 8.7 7.5
2016-May-02 10:56N 41°30' W 069°12'1111.0 120 / 211015.8 8.8 7.4
2016-May-02 09:57N 41°36' W 069°24'0 0.0 100 / 191015.6 8.8 7.5
2016-May-02 08:57N 41°36' W 069°24'7 7.6 090 / 151016.3 8.6 7.5
2016-May-02 07:58N 41°30' W 069°18'4 2.3 100 / 151016.7 8.6 7.2
2016-May-02 06:00N 41°30' W 069°12'4269.6 130 / 191015.7 2.2 0.5 7.9 7.9 8.3
2016-May-02 05:59N 41°30' W 069°18'4 4.5 110 / 201016.6 8.4 7.5
2016-May-02 04:59N 41°30' W 069°12'6 1.2 110 / 191018.5 8.2 7.3
2016-May-02 00:00N 41°36' W 069°12'15 4.5 1020.5 5.4 0.5 7.0 6.6 8.3
2016-May-01 20:42N 41°42' W 069°30'4 6.4 130 / 111023.2 8.1 7.7
2016-May-01 20:00N 41°42' W 069°36'414.9 140 / 91022.327.0 0.5 8.3 5.2 7.7
2016-May-01 19:42N 41°42' W 069°42'6 6.1 140 / 91023.8 8.3 7.7
2016-May-01 18:43N 41°36' W 069°42'4 6.3 120 / 111023.8 8.1 7.5
2016-May-01 18:00N 41°36' W 069°36'415.8 130 / 91022.2 5.4 0.5 8.0 4.9 8.4
2016-May-01 17:43N 41°36' W 069°42'0 0.0 110 / 91024.3 8.0 7.4
2016-May-01 15:45N 41°36' W 069°42'0 0.0 140 / 81025.0 8.7 7.3
2016-May-01 14:45N 41°36' W 069°42'5 2.0 120 / 61025.0 9.4 7.3
2016-May-01 12:31N 41°40' W 069°46'4 5.4
2016-May-01 11:47N 41°36' W 069°48'518.3 120 / 51025.2 7.5 7.2
2016-May-01 11:31N 41°41' W 069°49'5 6.4
2016-May-01 10:48N 41°36' W 069°48'11 6.8 110 / 71024.9 7.5 6.9
2016-May-01 09:15N 41°29' W 069°37'817.1
2016-May-01 08:49N 41°24' W 069°30'7 7.6 060 / 51024.3 6.8 6.9
2016-May-01 07:50N 41°30' W 069°24'5 3.9 040 / 61024.1 6.8 6.9
2016-May-01 06:31N 41°30' W 069°17'816.2
2016-May-01 06:00N 41°30' W 069°06'0 0.0 360 / 51023.110.8 6.9 5.0 8.2
2016-May-01 05:51N 41°30' W 069°06'7 7.6 360 / 61024.7 6.9 7.3
2016-May-01 04:52N 41°24' W 069°00'5 4.6 330 / 51025.0 7.1 7.4
2016-May-01 03:53N 41°24' W 068°54'5 4.6 340 / 51024.8 7.1 7.6
2016-May-01 02:54N 41°24' W 068°48'5 4.5 090 / 21024.7 7.5 7.6
2016-May-01 01:54N 41°24' W 068°42'1910.0 090 / 41024.7 7.2 7.4
2016-May-01 00:00N 41°30' W 068°18'6 6.0 040 / 91022.3 5.4 0.5 7.0 3.1 7.8
2016-Apr-30 23:00N 41°24' W 068°18'590.0 090 / 51023.527.0 0.5 7.8 4.9 7.8
2016-Apr-30 22:57N 41°24' W 068°24'8 7.5 100 / 41024.6 7.8 7.8
2016-Apr-30 21:57N 41°18' W 068°30'1111.0 070 / 71024.0 8.4 7.8
2016-Apr-30 20:58N 41°12' W 068°42'8 7.6 040 / 101023.5 7.5 7.8
2016-Apr-30 19:59N 41°18' W 068°48'8 3.8 040 / 121023.1 7.4 7.3
2016-Apr-30 18:00N 41°12' W 068°54'513.5 050 / 131020.710.8 0.5 7.9 5.7 8.5
2016-Apr-30 17:40N 41°12' W 069°00'5 4.6 060 / 171022.6 7.2 7.6
2016-Apr-30 16:41N 41°12' W 069°06'9 9.2 040 / 171022.3 7.0 7.2
2016-Apr-30 15:42N 41°12' W 069°18'18 4.6 030 / 201022.0 6.9 7.2
2016-Apr-30 11:45N 41°00' W 069°00'8 2.5 060 / 151022.0 6.8 6.8
2016-Apr-30 08:47N 41°06' W 068°54'11 5.5 060 / 151020.3 6.6 7.4
2016-Apr-30 06:49N 41°12' W 069°06'0 0.0 080 / 101021.5 6.6 6.9
2016-Apr-30 06:00N 41°12' W 069°06'527.1 080 / 91019.610.8 1.0 6.2 1.4 7.9
2016-Apr-30 05:50N 41°12' W 069°12'8 7.5 080 / 101021.0 6.7 7.1
2016-Apr-30 04:50N 41°18' W 069°18'5 4.6 120 / 111020.7 6.6 6.9
2016-Apr-30 03:51N 41°18' W 069°24'15 7.5 120 / 131020.8 6.6 6.9
2016-Apr-30 01:53N 41°24' W 069°42'14 7.2 120 / 151020.7 6.8 7.1
2016-Apr-30 00:00N 41°24' W 070°00'1412.5 100 / 131019.3 5.4 0.5 6.5 0.5 9.9
2016-Apr-29 22:55N 41°24' W 070°18'5 4.6 100 / 131020.7 7.2 9.7
2016-Apr-29 21:56N 41°24' W 070°24'1111.0 100 / 121020.4 7.2 9.9
2016-Apr-29 20:57N 41°30' W 070°36'0 0.0 110 / 131020.5 7.7 9.9
2016-Apr-29 18:58N 41°30' W 070°36'   100 / 91020.2 9.0 12.6
2016-Apr-27 11:46N 41°30' W 070°36'6 6.1 310 / 61013.1 5.8
2016-Apr-27 10:47N 41°24' W 070°36'5 4.6 270 / 51013.1 5.4 9.5
2016-Apr-27 09:48N 41°24' W 070°42'8 7.6 280 / 41012.8 4.6
2016-Apr-27 08:49N 41°18' W 070°48'8 3.8 320 / 91012.4 4.3 8.1
2016-Apr-27 06:50N 41°12' W 070°54'6 6.1 010 / 91011.4 5.0 8.1
2016-Apr-27 05:51N 41°18' W 070°54'6 3.1 350 / 81011.3 5.1 8.5
2016-Apr-27 03:53N 41°12' W 070°54'6 6.1 010 / 121011.8 5.5 8.4
2016-Apr-27 02:54N 41°18' W 070°54'8 3.8 020 / 141010.4 6.1
2016-Apr-27 00:55N 41°12' W 071°00'8 8.2 030 / 151010.2 6.2
2016-Apr-27 00:00N 41°06' W 070°54'9 8.6 030 / 191007.6 5.4 1.0 5.5 4.0 9.0
2016-Apr-26 22:57N 41°06' W 071°06'8 7.6 050 / 201008.1 6.3
2016-Apr-26 21:58N 41°00' W 071°12'5 4.5 050 / 181007.3 6.3 8.5
2016-Apr-26 20:58N 41°00' W 071°18'41 9.5 020 / 201006.8 6.5
2016-Apr-26 16:42N 40°30' W 071°54'29 9.8 280 / 111004.4 10.5
2016-Apr-26 13:44N 40°12' W 072°24'8 7.7 210 / 161006.1 13.1 9.1
2016-Apr-26 12:45N 40°06' W 072°30'1111.2 200 / 191006.9 12.7
2016-Apr-26 11:46N 40°00' W 072°42'2311.4 200 / 181007.8 12.4 9.2
2016-Apr-26 09:47N 39°42' W 073°00'8 7.7 200 / 171008.3 12.6 9.4
2016-Apr-26 08:48N 39°36' W 073°06'1111.2 170 / 191007.6 12.8
2016-Apr-26 07:49N 39°30' W 073°18'8 7.7 220 / 101010.5 14.7 10.6
2016-Apr-26 06:50N 39°24' W 073°24'8 9.1 290 / 261009.9 12.6
2016-Apr-26 06:00N 39°18' W 073°30'531.0 190 / 191008.727.0 12.311.610.3
2016-Apr-26 05:51N 39°18' W 073°36'19 9.4 190 / 181010.2 12.3 10.3
2016-Apr-26 03:52N 39°00' W 073°42'1313.1 190 / 131012.5 13.0 10.1
2016-Apr-26 02:53N 38°48' W 073°48'18 9.2 190 / 151013.1 12.2
2016-Apr-26 00:55N 38°30' W 073°48'1314.1 200 / 141013.8 12.4
2016-Apr-26 00:00N 38°18' W 073°42'19 9.1 200 / 131012.4 5.4 0.512.0 8.910.7
2016-Apr-25 21:57N 38°00' W 073°48'6 6.1 200 / 131014.9 14.1 11.7
2016-Apr-25 20:58N 37°54' W 073°48'1212.2 190 / 151015.2 15.9
2016-Apr-25 19:59N 37°42' W 073°48'1212.2 190 / 161015.8 17.0 14.3
2016-Apr-25 19:00N 37°30' W 073°48'8 7.7 200 / 151017.2 16.8
2016-Apr-25 18:00N 37°24' W 073°42'42 9.8 210 / 131016.727.0 0.517.212.918.6
2016-Apr-25 13:41N 36°42' W 073°48'3010.3 180 / 31020.0 17.1 19.0
2016-Apr-25 10:44N 36°12' W 073°54'1313.2 080 / 51019.3 18.1 24.6
2016-Apr-25 09:45N 36°00' W 074°00'8 7.7 110 / 81018.7 18.1 24.7
2016-Apr-25 08:45N 35°54' W 074°06'1313.2 120 / 61018.1 18.1 24.4
2016-Apr-25 07:46N 35°42' W 074°12'8 7.9 090 / 41018.2 18.1 24.4
2016-Apr-25 06:47N 35°36' W 074°18'1316.5 080 / 71018.5 17.9
2016-Apr-25 06:00N 35°24' W 074°12'1048.9 070 / 51017.327.0 1.017.611.324.2
2016-Apr-25 05:48N 35°24' W 074°24'6 6.1 070 / 81018.6 17.6 24.1
2016-Apr-25 04:49N 35°18' W 074°24'8 7.7 050 / 91019.0 17.6
2016-Apr-25 03:49N 35°12' W 074°30'1211.7 010 / 131019.1 17.3 23.5
2016-Apr-25 02:50N 35°06' W 074°42'16 8.1 010 / 141018.8 17.1
2016-Apr-25 00:52N 35°00' W 075°00'6 6.9 010 / 151017.8 16.9
2016-Apr-25 00:00N 34°54' W 075°00'1210.3 010 / 131016.6 5.4 1.516.9 8.225.7
2016-Apr-24 22:53N 34°48' W 075°12'8 7.9 010 / 141017.6 16.8
2016-Apr-24 21:54N 34°42' W 075°18'8 7.9 010 / 201017.4 16.5 25.0
2016-Apr-24 20:55N 34°36' W 075°24'16 8.1 020 / 171017.4 16.4
2016-Apr-24 18:57N 34°30' W 075°42'8 7.8 010 / 181018.4 16.8
2016-Apr-24 17:57N 34°24' W 075°48'8 7.9 010 / 211017.6 16.6 24.4
2016-Apr-24 16:58N 34°18' W 075°54'8 7.9 010 / 211017.3 17.5
2016-Apr-24 15:59N 34°12' W 076°00'42 8.0 360 / 201017.6 17.4 24.3
2016-Apr-24 10:43N 33°48' W 076°42'27 9.1 010 / 201014.9 18.312.724.0
2016-Apr-24 07:45N 33°30' W 077°06'1211.9 040 / 201013.5 19.513.3
2016-Apr-24 06:46N 33°24' W 077°18'8 8.0 040 / 191013.1 19.614.323.3
2016-Apr-24 05:47N 33°18' W 077°24'16 8.2 020 / 181012.7 19.815.1
2016-Apr-24 03:48N 33°12' W 077°42'1010.2 020 / 201012.1 20.314.4
2016-Apr-24 02:49N 33°12' W 077°54'1211.9 360 / 121012.5 21.216.322.0
2016-Apr-24 01:50N 33°06' W 078°06'1211.9 260 / 141012.0 21.217.5
2016-Apr-24 00:51N 33°00' W 078°18'8 9.2 260 / 131011.8 21.117.122.1
2016-Apr-24 00:00N 32°54' W 078°24'2612.2 240 / 91009.6 5.4 0.521.116.622.9
2016-Apr-23 21:53N 32°48' W 078°54'5 5.1 200 / 81010.6 21.216.6
2016-Apr-23 20:54N 32°48' W 079°00'2311.8 200 / 51010.5 21.916.919.9
2016-Apr-23 18:55N 32°36' W 079°24'1010.3 230 / 101011.2 21.917.1
2016-Apr-23 17:56N 32°36' W 079°36'19 6.5 230 / 101011.6 21.916.819.8
2016-Apr-23 14:58N 32°48' W 079°54'0 0.0 300 / 81012.0 20.615.5
2016-Apr-23 13:59N 32°48' W 079°54'0 0.0 330 / 121011.5 19.515.821.4
2016-Apr-23 13:00N 32°48' W 079°54'   310 / 111011.7 19.116.2

Dump ship's entire track history